createdAt,value
2023-04-26T00:00:54.278Z,36.11
2023-04-26T00:01:54.321Z,36.08
2023-04-26T00:02:54.458Z,36.04
2023-04-26T00:03:54.573Z,36.07
2023-04-26T00:04:54.719Z,36.09
2023-04-26T00:05:54.558Z,36.09
2023-04-26T00:06:54.540Z,36.09
2023-04-26T00:07:54.591Z,36.08
2023-04-26T00:08:55.403Z,36.08
2023-04-26T00:09:54.677Z,36.05
2023-04-26T00:10:54.725Z,36.04
2023-04-26T00:11:54.764Z,36.07
2023-04-26T00:12:54.808Z,36.05
2023-04-26T00:13:54.872Z,36.05
2023-04-26T00:14:54.913Z,36.04
2023-04-26T00:15:55.024Z,36.09
2023-04-26T00:16:55.027Z,36.05
2023-04-26T00:17:55.111Z,36.05
2023-04-26T00:18:55.334Z,36.08
2023-04-26T00:19:55.129Z,36.06
2023-04-26T00:20:55.195Z,36.08
2023-04-26T00:21:55.215Z,36.06
2023-04-26T00:22:55.279Z,36.06
2023-04-26T00:23:55.356Z,36.06
2023-04-26T00:24:55.904Z,36.03
2023-04-26T00:25:55.399Z,36.04
2023-04-26T00:26:55.472Z,36.03
2023-04-26T00:27:55.912Z,36.04
2023-04-26T00:28:55.558Z,36.05
2023-04-26T00:29:55.589Z,36.08
2023-04-26T00:30:55.631Z,36.05
2023-04-26T00:31:55.769Z,36.06
2023-04-26T00:32:55.830Z,36.06
2023-04-26T00:33:55.783Z,36.08
2023-04-26T00:34:55.826Z,36.04
2023-04-26T00:35:55.870Z,36.09
2023-04-26T00:36:55.917Z,36.05
2023-04-26T00:37:55.972Z,36.05
2023-04-26T00:38:56.016Z,36.05
2023-04-26T00:39:56.045Z,36.04
2023-04-26T00:40:56.215Z,36.04
2023-04-26T00:41:56.149Z,36.05
2023-04-26T00:42:56.181Z,36.04
2023-04-26T00:43:56.234Z,36.00
2023-04-26T00:44:56.290Z,36.04
2023-04-26T00:45:56.373Z,36.08
2023-04-26T00:46:56.379Z,36.01
2023-04-26T00:47:56.485Z,36.04
2023-04-26T00:48:56.492Z,36.05
2023-04-26T00:49:56.547Z,36.05
2023-04-26T00:50:56.597Z,36.04
2023-04-26T00:51:56.660Z,36.07
2023-04-26T00:52:56.700Z,36.05
2023-04-26T00:53:56.789Z,36.05
2023-04-26T00:54:56.806Z,36.07
2023-04-26T00:55:56.880Z,36.04
2023-04-26T00:56:57.418Z,36.02
2023-04-26T00:57:56.945Z,36.05
2023-04-26T00:58:57.009Z,36.05
2023-04-26T00:59:57.121Z,36.05
2023-04-26T01:00:57.159Z,36.03
2023-04-26T01:01:57.201Z,36.05
2023-04-26T01:02:57.291Z,36.06
2023-04-26T01:03:57.420Z,36.05
2023-04-26T01:04:57.322Z,36.05
2023-04-26T01:05:57.368Z,36.05
2023-04-26T01:06:57.425Z,36.03
2023-04-26T01:07:57.511Z,36.02
2023-04-26T01:08:57.533Z,36.03
2023-04-26T01:09:57.577Z,36.03
2023-04-26T01:10:58.412Z,36.01
2023-04-26T01:11:57.662Z,36.06
2023-04-26T01:12:57.726Z,36.02
2023-04-26T01:13:57.791Z,36.04
2023-04-26T01:14:57.836Z,36.06
2023-04-26T01:15:57.877Z,36.05
2023-04-26T01:16:57.962Z,36.03
2023-04-26T01:17:58.008Z,36.03
2023-04-26T01:18:58.027Z,36.01
2023-04-26T01:19:58.066Z,36.01
2023-04-26T01:20:58.107Z,36.02
2023-04-26T01:21:58.150Z,36.05
2023-04-26T01:22:58.192Z,36.02
2023-04-26T01:23:58.241Z,36.02
2023-04-26T01:24:58.303Z,36.02
2023-04-26T01:25:58.342Z,36.02
2023-04-26T01:26:58.434Z,36.03
2023-04-26T01:27:58.923Z,36.00
2023-04-26T01:28:58.501Z,36.03
2023-04-26T01:29:58.555Z,36.02
2023-04-26T01:30:58.636Z,36.00
2023-04-26T01:31:58.633Z,36.00
2023-04-26T01:32:58.720Z,35.98
2023-04-26T01:33:58.748Z,35.99
2023-04-26T01:34:58.803Z,36.00
2023-04-26T01:35:58.857Z,36.01
2023-04-26T01:36:58.906Z,36.00
2023-04-26T01:37:59.424Z,35.97
2023-04-26T01:38:59.019Z,35.98
2023-04-26T01:39:59.078Z,35.95
2023-04-26T01:40:59.122Z,36.00
2023-04-26T01:41:59.190Z,35.99
2023-04-26T01:42:59.230Z,36.00
2023-04-26T01:43:59.360Z,35.98
2023-04-26T01:44:59.342Z,36.00
2023-04-26T01:45:59.439Z,35.99
2023-04-26T01:46:59.449Z,36.00
2023-04-26T01:48:00.460Z,35.97
2023-04-26T01:48:59.549Z,35.98
2023-04-26T01:49:59.584Z,35.97
2023-04-26T01:50:59.621Z,35.97
2023-04-26T01:51:59.687Z,35.99
2023-04-26T01:52:59.748Z,35.95
2023-04-26T01:53:59.806Z,35.98
2023-04-26T01:54:59.817Z,35.99
2023-04-26T01:55:59.845Z,35.98
2023-04-26T01:56:59.951Z,35.98
2023-04-26T01:57:59.949Z,35.97
2023-04-26T01:58:59.982Z,35.95
2023-04-26T02:00:00.041Z,35.97
2023-04-26T02:01:00.055Z,35.99
2023-04-26T02:02:00.213Z,36.02
2023-04-26T02:03:00.301Z,35.97
2023-04-26T02:04:00.234Z,35.95
2023-04-26T02:05:00.369Z,35.97
2023-04-26T02:06:00.313Z,35.94
2023-04-26T02:07:00.332Z,35.94
2023-04-26T02:08:00.390Z,35.95
2023-04-26T02:09:00.424Z,35.92
2023-04-26T02:10:00.483Z,35.97
2023-04-26T02:11:00.544Z,35.93
2023-04-26T02:12:00.596Z,35.95
2023-04-26T02:13:00.589Z,35.97
2023-04-26T02:14:00.624Z,35.93
2023-04-26T02:15:00.803Z,35.93
2023-04-26T02:16:00.690Z,35.93
2023-04-26T02:17:01.434Z,35.88
2023-04-26T02:18:00.742Z,35.89
2023-04-26T02:19:00.796Z,35.90
2023-04-26T02:20:00.830Z,35.87
2023-04-26T02:21:00.876Z,35.91
2023-04-26T02:22:00.881Z,35.87
2023-04-26T02:23:00.988Z,35.87
2023-04-26T02:24:01.002Z,35.91
2023-04-26T02:25:00.938Z,35.90
2023-04-26T02:26:00.967Z,35.89
2023-04-26T02:27:00.982Z,35.87
2023-04-26T02:28:01.005Z,35.87
2023-04-26T02:29:01.029Z,35.89
2023-04-26T02:30:01.117Z,35.88
2023-04-26T02:31:01.109Z,35.90
2023-04-26T02:32:01.095Z,35.87
2023-04-26T02:33:01.185Z,35.85
2023-04-26T02:34:01.138Z,35.88
2023-04-26T02:35:01.168Z,35.88
2023-04-26T02:36:01.176Z,35.85
2023-04-26T02:37:01.213Z,35.89
2023-04-26T02:38:01.239Z,35.85
2023-04-26T02:39:01.277Z,35.81
2023-04-26T02:40:01.331Z,35.88
2023-04-26T02:41:01.374Z,35.87
2023-04-26T02:42:01.391Z,35.84
2023-04-26T02:43:01.429Z,35.85
2023-04-26T02:44:01.456Z,35.80
2023-04-26T02:45:01.559Z,35.84
2023-04-26T02:46:01.650Z,35.88
2023-04-26T02:47:01.687Z,35.83
2023-04-26T02:48:01.642Z,35.83
2023-04-26T02:49:01.651Z,35.84
2023-04-26T02:50:01.673Z,35.81
2023-04-26T02:51:01.727Z,35.80
2023-04-26T02:52:01.760Z,35.84
2023-04-26T02:53:01.830Z,35.83
2023-04-26T02:54:01.867Z,35.81
2023-04-26T02:55:01.883Z,35.82
2023-04-26T02:56:01.929Z,35.85
2023-04-26T02:57:01.971Z,35.79
2023-04-26T02:58:01.970Z,35.82
2023-04-26T02:59:02.949Z,35.80
2023-04-26T03:00:02.088Z,35.77
2023-04-26T03:01:02.178Z,35.79
2023-04-26T03:02:02.205Z,35.81
2023-04-26T03:03:02.355Z,35.81
2023-04-26T03:04:02.337Z,35.80
2023-04-26T03:05:02.258Z,35.79
2023-04-26T03:06:02.271Z,35.80
2023-04-26T03:07:02.282Z,35.83
2023-04-26T03:08:02.283Z,35.76
2023-04-26T03:09:02.291Z,35.78
2023-04-26T03:10:02.320Z,35.79
2023-04-26T03:11:02.357Z,35.75
2023-04-26T03:12:02.413Z,35.77
2023-04-26T03:13:02.435Z,35.79
2023-04-26T03:14:02.482Z,35.75
2023-04-26T03:15:02.520Z,35.77
2023-04-26T03:16:02.615Z,35.78
2023-04-26T03:17:02.686Z,35.77
2023-04-26T03:18:02.666Z,35.76
2023-04-26T03:19:02.646Z,35.72
2023-04-26T03:20:03.052Z,35.78
2023-04-26T03:21:02.699Z,35.76
2023-04-26T03:22:02.716Z,35.78
2023-04-26T03:23:02.750Z,35.73
2023-04-26T03:24:02.768Z,35.77
2023-04-26T03:25:02.802Z,35.73
2023-04-26T03:26:02.838Z,35.73
2023-04-26T03:27:02.839Z,35.75
2023-04-26T03:28:02.868Z,35.70
2023-04-26T03:29:02.893Z,35.73
2023-04-26T03:30:02.908Z,35.76
2023-04-26T03:31:02.935Z,35.77
2023-04-26T03:32:02.989Z,35.73
2023-04-26T03:33:03.011Z,35.74
2023-04-26T03:34:03.016Z,35.76
2023-04-26T03:35:03.031Z,35.72
2023-04-26T03:36:03.029Z,35.72
2023-04-26T03:37:03.049Z,35.74
2023-04-26T03:38:03.054Z,35.73
2023-04-26T03:39:03.136Z,35.75
2023-04-26T03:40:03.122Z,35.73
2023-04-26T03:41:03.140Z,35.76
2023-04-26T03:42:03.213Z,35.72
2023-04-26T03:43:03.224Z,35.72
2023-04-26T03:44:03.173Z,35.74
2023-04-26T03:45:03.181Z,35.75
2023-04-26T03:46:03.240Z,35.70
2023-04-26T03:47:03.193Z,35.76
2023-04-26T03:48:03.236Z,35.72
2023-04-26T03:49:03.204Z,35.72
2023-04-26T03:50:03.215Z,35.72
2023-04-26T03:51:03.188Z,35.75
2023-04-26T03:52:03.237Z,35.74
2023-04-26T03:53:03.226Z,35.72
2023-04-26T03:54:03.235Z,35.73
2023-04-26T03:55:03.269Z,35.74
2023-04-26T03:56:03.287Z,35.76
2023-04-26T03:57:03.302Z,35.72
2023-04-26T03:58:03.358Z,35.73
2023-04-26T03:59:03.286Z,35.71
2023-04-26T04:00:03.295Z,35.73
2023-04-26T04:01:03.296Z,35.75
2023-04-26T04:02:03.426Z,35.68
2023-04-26T04:03:03.514Z,35.73
2023-04-26T04:04:03.515Z,35.70
2023-04-26T04:05:03.411Z,35.71
2023-04-26T04:06:03.320Z,35.69
2023-04-26T04:07:03.341Z,35.67
2023-04-26T04:08:03.342Z,35.70
2023-04-26T04:09:03.381Z,35.74
2023-04-26T04:10:03.378Z,35.71
2023-04-26T04:11:03.385Z,35.71
2023-04-26T04:12:03.377Z,35.70
2023-04-26T04:13:03.399Z,35.72
2023-04-26T04:14:03.425Z,35.72
2023-04-26T04:15:03.455Z,35.71
2023-04-26T04:16:03.548Z,35.73
2023-04-26T04:17:03.515Z,35.69
2023-04-26T04:18:03.598Z,35.72
2023-04-26T04:19:03.601Z,35.71
2023-04-26T04:20:03.568Z,35.69
2023-04-26T04:21:03.578Z,35.70
2023-04-26T04:22:03.591Z,35.72
2023-04-26T04:23:03.581Z,35.70
2023-04-26T04:24:03.616Z,35.67
2023-04-26T04:25:03.612Z,35.66
2023-04-26T04:26:03.602Z,35.69
2023-04-26T04:27:03.610Z,35.67
2023-04-26T04:28:03.598Z,35.66
2023-04-26T04:29:03.593Z,35.67
2023-04-26T04:30:03.604Z,35.63
2023-04-26T04:31:03.614Z,35.64
2023-04-26T04:32:03.607Z,35.64
2023-04-26T04:33:03.716Z,35.64
2023-04-26T04:34:03.583Z,35.62
2023-04-26T04:35:03.614Z,35.64
2023-04-26T04:36:03.597Z,35.66
2023-04-26T04:37:03.604Z,35.64
2023-04-26T04:38:03.578Z,35.60
2023-04-26T04:39:03.560Z,35.59
2023-04-26T04:40:03.575Z,35.63
2023-04-26T04:41:03.581Z,35.60
2023-04-26T04:42:03.553Z,35.64
2023-04-26T04:43:03.545Z,35.62
2023-04-26T04:44:03.556Z,35.63
2023-04-26T04:45:03.556Z,35.57
2023-04-26T04:46:03.566Z,35.59
2023-04-26T04:47:03.583Z,35.58
2023-04-26T04:48:03.553Z,35.59
2023-04-26T04:49:03.523Z,35.59
2023-04-26T04:50:03.531Z,35.59
2023-04-26T04:51:03.509Z,35.55
2023-04-26T04:52:03.506Z,35.53
2023-04-26T04:53:04.498Z,35.57
2023-04-26T04:54:03.508Z,35.53
2023-04-26T04:55:03.502Z,35.54
2023-04-26T04:56:03.544Z,35.52
2023-04-26T04:57:03.505Z,35.50
2023-04-26T04:58:03.458Z,35.52
2023-04-26T04:59:03.460Z,35.48
2023-04-26T05:00:03.456Z,35.47
2023-04-26T05:01:03.452Z,35.53
2023-04-26T05:02:03.480Z,35.49
2023-04-26T05:03:03.639Z,35.49
2023-04-26T05:04:03.678Z,35.48
2023-04-26T05:05:03.538Z,35.52
2023-04-26T05:06:03.444Z,35.51
2023-04-26T05:07:03.435Z,35.48
2023-04-26T05:08:03.445Z,35.48
2023-04-26T05:09:03.445Z,35.50
2023-04-26T05:10:03.431Z,35.49
2023-04-26T05:11:03.425Z,35.48
2023-04-26T05:12:03.428Z,35.50
2023-04-26T05:13:03.379Z,35.44
2023-04-26T05:14:03.430Z,35.46
2023-04-26T05:15:03.432Z,35.49
2023-04-26T05:16:03.369Z,35.47
2023-04-26T05:17:03.347Z,35.45
2023-04-26T05:18:03.447Z,35.46
2023-04-26T05:19:03.322Z,35.45
2023-04-26T05:20:03.437Z,35.49
2023-04-26T05:21:03.356Z,35.73
2023-04-26T05:22:03.338Z,35.94
2023-04-26T05:23:03.350Z,35.82
2023-04-26T05:24:03.405Z,36.05
2023-04-26T05:25:03.338Z,36.36
2023-04-26T05:26:03.379Z,36.28
2023-04-26T05:27:03.392Z,36.29
2023-04-26T05:28:03.431Z,36.44
2023-04-26T05:29:03.489Z,36.57
2023-04-26T05:30:03.530Z,36.90
2023-04-26T05:31:03.643Z,36.98
2023-04-26T05:32:03.741Z,37.37
2023-04-26T05:33:03.732Z,37.24
2023-04-26T05:34:03.675Z,37.14
2023-04-26T05:35:03.704Z,37.17
2023-04-26T05:36:03.722Z,37.25
2023-04-26T05:37:03.732Z,37.24
2023-04-26T05:38:03.746Z,37.38
2023-04-26T05:39:03.742Z,37.61
2023-04-26T05:40:04.015Z,37.64
2023-04-26T05:41:04.566Z,37.95
2023-04-26T05:42:03.756Z,38.09
2023-04-26T05:43:03.747Z,38.27
2023-04-26T05:44:03.746Z,38.16
2023-04-26T05:45:03.742Z,38.25
2023-04-26T05:46:03.796Z,38.49
2023-04-26T05:47:03.714Z,38.37
2023-04-26T05:48:03.730Z,38.36
2023-04-26T05:49:03.662Z,38.42
2023-04-26T05:50:03.642Z,38.81
2023-04-26T05:51:03.610Z,38.94
2023-04-26T05:52:03.628Z,39.14
2023-04-26T05:53:03.585Z,39.17
2023-04-26T05:54:03.574Z,39.33
2023-04-26T05:55:03.547Z,39.40
2023-04-26T05:56:03.613Z,39.64
2023-04-26T05:57:03.616Z,39.52
2023-04-26T05:58:03.507Z,39.74
2023-04-26T05:59:03.470Z,39.87
2023-04-26T06:00:03.453Z,39.96
2023-04-26T06:01:03.428Z,39.99
2023-04-26T06:02:03.424Z,40.15
2023-04-26T06:03:03.565Z,40.23
2023-04-26T06:04:03.863Z,40.39
2023-04-26T06:05:03.599Z,40.45
2023-04-26T06:06:03.429Z,40.46
2023-04-26T06:07:03.367Z,40.67
2023-04-26T06:08:04.017Z,40.80
2023-04-26T06:09:03.398Z,40.84
2023-04-26T06:10:03.451Z,40.99
2023-04-26T06:11:03.394Z,41.09
2023-04-26T06:12:03.395Z,41.13
2023-04-26T06:13:03.430Z,41.20
2023-04-26T06:14:03.432Z,41.26
2023-04-26T06:15:03.465Z,41.41
2023-04-26T06:16:03.486Z,41.52
2023-04-26T06:17:03.640Z,41.65
2023-04-26T06:18:03.614Z,41.78
2023-04-26T06:19:03.597Z,41.83
2023-04-26T06:20:03.644Z,41.84
2023-04-26T06:21:03.682Z,41.94
2023-04-26T06:22:04.702Z,42.00
2023-04-26T06:23:03.617Z,42.10
2023-04-26T06:24:04.516Z,42.17
2023-04-26T06:25:03.555Z,39.11
2023-04-26T06:26:03.526Z,37.92
2023-04-26T06:27:03.497Z,33.46
2023-04-26T06:28:03.472Z,33.73
2023-04-26T06:29:03.444Z,34.59
2023-04-26T06:30:03.442Z,33.87
2023-04-26T06:31:03.430Z,32.93
2023-04-26T06:32:03.382Z,32.95
2023-04-26T06:33:03.398Z,32.63
2023-04-26T06:34:03.407Z,32.95
2023-04-26T06:35:03.447Z,33.55
2023-04-26T06:36:03.472Z,33.82
2023-04-26T06:37:03.490Z,34.15
2023-04-26T06:38:03.496Z,34.64
2023-04-26T06:39:03.515Z,35.19
2023-04-26T06:40:03.490Z,35.57
2023-04-26T06:41:04.035Z,35.82
2023-04-26T06:42:03.481Z,36.07
2023-04-26T06:43:04.448Z,36.31
2023-04-26T06:44:03.521Z,36.47
2023-04-26T06:45:03.426Z,36.66
2023-04-26T06:46:03.438Z,36.80
2023-04-26T06:47:06.028Z,36.98
2023-04-26T06:48:05.651Z,37.12
2023-04-26T06:49:03.661Z,37.23
2023-04-26T06:50:04.039Z,37.43
2023-04-26T06:51:03.559Z,37.56
2023-04-26T06:52:03.547Z,37.63
2023-04-26T06:53:03.523Z,37.81
2023-04-26T06:54:03.520Z,38.03
2023-04-26T06:55:03.812Z,38.13
2023-04-26T06:56:03.519Z,38.29
2023-04-26T06:57:03.543Z,38.49
2023-04-26T06:58:03.656Z,38.60
2023-04-26T06:59:03.654Z,38.72
2023-04-26T07:00:03.664Z,38.85
2023-04-26T07:01:04.563Z,38.98
2023-04-26T07:02:03.724Z,39.07
2023-04-26T07:03:04.584Z,39.22
2023-04-26T07:04:03.902Z,39.36
2023-04-26T07:05:03.937Z,39.51
2023-04-26T07:06:04.543Z,39.65
2023-04-26T07:07:03.852Z,39.76
2023-04-26T07:08:03.867Z,39.85
2023-04-26T07:09:04.032Z,40.03
2023-04-26T07:10:04.096Z,40.07
2023-04-26T07:11:03.971Z,40.16
2023-04-26T07:12:04.000Z,40.26
2023-04-26T07:13:04.030Z,40.27
2023-04-26T07:14:05.038Z,40.50
2023-04-26T07:15:04.076Z,40.61
2023-04-26T07:16:04.134Z,40.81
2023-04-26T07:17:04.121Z,40.81
2023-04-26T07:18:04.190Z,40.72
2023-04-26T07:19:04.148Z,40.68
2023-04-26T07:20:04.179Z,40.55
2023-04-26T07:21:04.191Z,40.48
2023-04-26T07:22:04.340Z,40.46
2023-04-26T07:23:04.263Z,40.45
2023-04-26T07:24:04.442Z,40.42
2023-04-26T07:25:04.354Z,40.52
2023-04-26T07:26:05.006Z,40.58
2023-04-26T07:27:04.356Z,40.71
2023-04-26T07:28:04.412Z,40.79
2023-04-26T07:29:04.413Z,40.83
2023-04-26T07:30:04.443Z,40.88
2023-04-26T07:31:06.041Z,40.86
2023-04-26T07:32:05.070Z,40.83
2023-04-26T07:33:04.409Z,40.88
2023-04-26T07:34:04.324Z,40.91
2023-04-26T07:35:04.968Z,40.89
2023-04-26T07:36:04.328Z,40.90
2023-04-26T07:37:04.223Z,40.96
2023-04-26T07:38:04.236Z,40.92
2023-04-26T07:39:04.173Z,40.95
2023-04-26T07:40:04.143Z,40.94
2023-04-26T07:41:04.106Z,40.94
2023-04-26T07:42:04.123Z,40.96
2023-04-26T07:43:04.043Z,40.93
2023-04-26T07:44:04.017Z,40.95
2023-04-26T07:45:03.979Z,40.96
2023-04-26T07:46:04.015Z,40.96
2023-04-26T07:47:03.922Z,40.93
2023-04-26T07:48:03.926Z,40.95
2023-04-26T07:49:03.847Z,40.94
2023-04-26T07:50:03.840Z,40.93
2023-04-26T07:51:03.869Z,40.93
2023-04-26T07:52:03.763Z,40.94
2023-04-26T07:53:03.833Z,40.92
2023-04-26T07:54:03.723Z,40.91
2023-04-26T07:55:03.702Z,40.87
2023-04-26T07:56:03.666Z,40.92
2023-04-26T07:57:03.636Z,40.86
2023-04-26T07:58:03.719Z,40.86
2023-04-26T07:59:03.586Z,40.87
2023-04-26T08:00:03.571Z,40.87
2023-04-26T08:01:03.542Z,40.81
2023-04-26T08:02:03.670Z,40.77
2023-04-26T08:03:03.669Z,40.83
2023-04-26T08:04:03.713Z,40.80
2023-04-26T08:05:03.729Z,40.77
2023-04-26T08:06:03.514Z,40.80
2023-04-26T08:07:03.393Z,40.75
2023-04-26T08:08:03.383Z,40.77
2023-04-26T08:09:03.340Z,40.75
2023-04-26T08:10:03.314Z,40.60
2023-04-26T08:11:03.281Z,40.53
2023-04-26T08:12:03.283Z,40.52
2023-04-26T08:13:03.268Z,40.47
2023-04-26T08:14:03.205Z,40.42
2023-04-26T08:15:03.172Z,40.51
2023-04-26T08:16:03.165Z,40.49
2023-04-26T08:17:04.018Z,40.46
2023-04-26T08:18:03.221Z,40.33
2023-04-26T08:19:04.060Z,40.29
2023-04-26T08:20:03.029Z,40.22
2023-04-26T08:21:03.010Z,40.17
2023-04-26T08:22:02.993Z,40.17
2023-04-26T08:23:02.934Z,39.98
2023-04-26T08:24:03.558Z,39.83
2023-04-26T08:25:02.870Z,39.73
2023-04-26T08:26:02.853Z,39.71
2023-04-26T08:27:02.821Z,39.80
2023-04-26T08:28:02.776Z,39.78
2023-04-26T08:29:03.576Z,39.90
2023-04-26T08:30:02.806Z,39.99
2023-04-26T08:31:03.104Z,40.02
2023-04-26T08:32:02.689Z,39.98
2023-04-26T08:33:02.680Z,39.84
2023-04-26T08:34:02.618Z,39.87
2023-04-26T08:35:02.596Z,39.82
2023-04-26T08:36:02.569Z,39.82
2023-04-26T08:37:02.542Z,39.84
2023-04-26T08:38:02.516Z,39.91
2023-04-26T08:39:02.500Z,39.85
2023-04-26T08:40:02.458Z,39.78
2023-04-26T08:41:02.502Z,39.72
2023-04-26T08:42:02.502Z,39.71
2023-04-26T08:43:02.379Z,39.73
2023-04-26T08:44:02.359Z,39.68
2023-04-26T08:45:02.347Z,39.62
2023-04-26T08:46:02.418Z,39.69
2023-04-26T08:47:02.277Z,39.65
2023-04-26T08:48:03.923Z,39.72
2023-04-26T08:49:02.268Z,39.73
2023-04-26T08:50:02.223Z,39.75
2023-04-26T08:51:03.068Z,39.78
2023-04-26T08:52:02.206Z,39.71
2023-04-26T08:53:02.182Z,39.80
2023-04-26T08:54:04.668Z,39.77
2023-04-26T08:55:02.160Z,39.64
2023-04-26T08:56:02.125Z,39.67
2023-04-26T08:57:02.111Z,39.65
2023-04-26T08:58:02.581Z,39.63
2023-04-26T08:59:02.051Z,39.58
2023-04-26T09:00:02.040Z,39.60
2023-04-26T09:01:02.074Z,39.59
2023-04-26T09:02:02.154Z,39.62
2023-04-26T09:03:02.150Z,39.58
2023-04-26T09:04:02.063Z,39.50
2023-04-26T09:05:02.080Z,39.40
2023-04-26T09:06:03.830Z,39.34
2023-04-26T09:07:01.960Z,39.31
2023-04-26T09:08:01.917Z,39.28
2023-04-26T09:09:01.921Z,39.38
2023-04-26T09:10:01.916Z,39.30
2023-04-26T09:11:01.922Z,39.25
2023-04-26T09:12:01.911Z,39.15
2023-04-26T09:13:02.574Z,39.24
2023-04-26T09:14:01.894Z,39.28
2023-04-26T09:15:01.889Z,39.38
2023-04-26T09:16:04.638Z,39.36
2023-04-26T09:17:01.865Z,39.34
2023-04-26T09:18:02.545Z,39.35
2023-04-26T09:19:01.819Z,39.30
2023-04-26T09:20:01.812Z,39.22
2023-04-26T09:21:01.785Z,39.26
2023-04-26T09:22:01.763Z,39.22
2023-04-26T09:23:01.735Z,39.18
2023-04-26T09:24:04.528Z,39.25
2023-04-26T09:25:01.682Z,39.20
2023-04-26T09:26:01.739Z,39.03
2023-04-26T09:27:01.651Z,38.96
2023-04-26T09:28:01.630Z,38.92
2023-04-26T09:29:01.592Z,38.94
2023-04-26T09:30:01.569Z,39.03
2023-04-26T09:31:01.653Z,39.11
2023-04-26T09:32:01.651Z,39.08
2023-04-26T09:33:02.580Z,39.10
2023-04-26T09:34:02.222Z,39.00
2023-04-26T09:35:01.502Z,38.99
2023-04-26T09:36:01.414Z,38.94
2023-04-26T09:37:01.401Z,39.07
2023-04-26T09:38:05.554Z,38.99
2023-04-26T09:39:02.339Z,38.95
2023-04-26T09:40:01.321Z,38.85
2023-04-26T09:41:01.283Z,38.84
2023-04-26T09:42:01.263Z,38.80
2023-04-26T09:43:01.225Z,38.74
2023-04-26T09:44:01.189Z,38.78
2023-04-26T09:45:01.181Z,38.69
2023-04-26T09:46:01.140Z,38.51
2023-04-26T09:47:01.168Z,38.79
2023-04-26T09:48:01.121Z,38.50
2023-04-26T09:49:01.064Z,38.49
2023-04-26T09:50:01.655Z,38.63
2023-04-26T09:51:01.023Z,38.55
2023-04-26T09:52:01.007Z,38.64
2023-04-26T09:53:00.965Z,38.72
2023-04-26T09:54:00.939Z,38.70
2023-04-26T09:55:00.899Z,38.74
2023-04-26T09:56:00.884Z,38.70
2023-04-26T09:57:00.863Z,38.74
2023-04-26T09:58:00.833Z,38.71
2023-04-26T09:59:00.877Z,38.68
2023-04-26T10:00:01.169Z,38.57
2023-04-26T10:01:01.572Z,38.50
2023-04-26T10:02:00.823Z,38.46
2023-04-26T10:03:00.869Z,38.26
2023-04-26T10:04:00.919Z,38.26
2023-04-26T10:05:00.831Z,38.24
2023-04-26T10:06:01.331Z,38.23
2023-04-26T10:07:00.833Z,38.30
2023-04-26T10:08:00.789Z,38.34
2023-04-26T10:09:00.813Z,38.35
2023-04-26T10:10:00.795Z,38.34
2023-04-26T10:11:00.827Z,38.43
2023-04-26T10:12:00.824Z,38.40
2023-04-26T10:13:00.801Z,38.45
2023-04-26T10:14:00.861Z,38.38
2023-04-26T10:15:01.597Z,38.33
2023-04-26T10:16:00.929Z,38.29
2023-04-26T10:17:00.821Z,38.14
2023-04-26T10:18:00.923Z,38.00
2023-04-26T10:19:00.816Z,37.95
2023-04-26T10:20:00.953Z,38.06
2023-04-26T10:21:00.818Z,38.00
2023-04-26T10:22:00.884Z,38.19
2023-04-26T10:23:00.829Z,38.11
2023-04-26T10:24:00.833Z,38.10
2023-04-26T10:25:00.815Z,38.20
2023-04-26T10:26:00.809Z,38.09
2023-04-26T10:27:00.871Z,38.10
2023-04-26T10:28:00.841Z,38.02
2023-04-26T10:29:02.886Z,38.06
2023-04-26T10:30:01.135Z,38.09
2023-04-26T10:31:00.895Z,38.13
2023-04-26T10:32:00.948Z,37.96
2023-04-26T10:33:00.935Z,37.94
2023-04-26T10:34:00.915Z,37.99
2023-04-26T10:35:00.945Z,37.90
2023-04-26T10:36:01.111Z,37.81
2023-04-26T10:37:00.923Z,37.92
2023-04-26T10:38:01.028Z,37.94
2023-04-26T10:39:00.917Z,37.87
2023-04-26T10:40:00.914Z,37.83
2023-04-26T10:41:00.915Z,37.76
2023-04-26T10:42:00.909Z,37.86
2023-04-26T10:43:00.901Z,37.70
2023-04-26T10:44:00.920Z,37.70
2023-04-26T10:45:01.144Z,37.66
2023-04-26T10:46:00.961Z,37.68
2023-04-26T10:47:00.922Z,37.68
2023-04-26T10:48:00.921Z,37.72
2023-04-26T10:49:00.969Z,37.56
2023-04-26T10:50:02.001Z,37.70
2023-04-26T10:51:00.895Z,37.73
2023-04-26T10:52:00.884Z,37.72
2023-04-26T10:53:01.612Z,37.78
2023-04-26T10:54:00.884Z,37.85
2023-04-26T10:55:00.889Z,37.81
2023-04-26T10:56:00.872Z,37.79
2023-04-26T10:57:00.880Z,37.80
2023-04-26T10:58:00.845Z,37.74
2023-04-26T10:59:00.844Z,37.75
2023-04-26T11:00:01.156Z,37.70
2023-04-26T11:01:00.875Z,37.73
2023-04-26T11:02:00.830Z,37.69
2023-04-26T11:03:00.856Z,37.69
2023-04-26T11:04:01.001Z,37.64
2023-04-26T11:05:00.906Z,37.65
2023-04-26T11:06:00.892Z,37.61
2023-04-26T11:07:00.826Z,37.63
2023-04-26T11:08:00.791Z,37.57
2023-04-26T11:09:00.771Z,37.59
2023-04-26T11:10:00.746Z,37.56
2023-04-26T11:11:00.848Z,37.54
2023-04-26T11:12:00.726Z,37.53
2023-04-26T11:13:00.720Z,37.51
2023-04-26T11:14:00.690Z,37.47
2023-04-26T11:15:00.826Z,37.51
2023-04-26T11:16:00.731Z,37.46
2023-04-26T11:17:00.661Z,37.47
2023-04-26T11:18:00.663Z,37.44
2023-04-26T11:19:00.619Z,37.40
2023-04-26T11:20:00.700Z,37.41
2023-04-26T11:21:00.601Z,37.39
2023-04-26T11:22:01.132Z,37.36
2023-04-26T11:23:00.566Z,37.33
2023-04-26T11:24:00.552Z,37.29
2023-04-26T11:25:00.548Z,37.25
2023-04-26T11:26:00.537Z,37.22
2023-04-26T11:27:00.483Z,37.22
2023-04-26T11:28:00.463Z,37.18
2023-04-26T11:29:00.440Z,37.17
2023-04-26T11:30:00.422Z,37.12
2023-04-26T11:31:00.458Z,37.09
2023-04-26T11:32:00.412Z,37.09
2023-04-26T11:33:00.473Z,37.11
2023-04-26T11:34:00.366Z,37.10
2023-04-26T11:35:00.403Z,37.08
2023-04-26T11:36:00.320Z,37.02
2023-04-26T11:37:00.315Z,37.01
2023-04-26T11:38:00.291Z,36.98
2023-04-26T11:39:00.279Z,36.94
2023-04-26T11:40:00.272Z,36.89
2023-04-26T11:41:00.258Z,36.90
2023-04-26T11:42:00.246Z,36.84
2023-04-26T11:43:01.143Z,36.84
2023-04-26T11:44:00.282Z,36.84
2023-04-26T11:45:00.221Z,36.83
2023-04-26T11:46:00.180Z,36.79
2023-04-26T11:47:00.216Z,36.78
2023-04-26T11:48:00.246Z,36.73
2023-04-26T11:49:00.178Z,36.74
2023-04-26T11:50:00.156Z,36.74
2023-04-26T11:51:00.132Z,36.71
2023-04-26T11:52:00.088Z,36.68
2023-04-26T11:53:00.046Z,36.64
2023-04-26T11:54:00.044Z,36.59
2023-04-26T11:55:00.012Z,36.56
2023-04-26T11:56:00.021Z,36.53
2023-04-26T11:57:00.032Z,36.54
2023-04-26T11:58:00.059Z,36.49
2023-04-26T11:59:00.060Z,36.49
2023-04-26T12:00:00.072Z,36.51
2023-04-26T12:01:00.106Z,36.51
2023-04-26T12:02:00.188Z,36.47
2023-04-26T12:03:00.340Z,36.46
2023-04-26T12:04:00.477Z,36.43
2023-04-26T12:05:00.372Z,36.41
2023-04-26T12:06:00.221Z,36.38
2023-04-26T12:07:00.299Z,36.39
2023-04-26T12:08:00.235Z,36.41
2023-04-26T12:09:00.249Z,36.37
2023-04-26T12:10:01.064Z,36.36
2023-04-26T12:11:00.342Z,36.35
2023-04-26T12:12:00.386Z,36.35
2023-04-26T12:13:00.327Z,36.35
2023-04-26T12:14:00.335Z,36.31
2023-04-26T12:15:00.324Z,36.31
2023-04-26T12:16:00.314Z,36.33
2023-04-26T12:17:00.312Z,36.31
2023-04-26T12:18:00.352Z,36.31
2023-04-26T12:19:00.228Z,36.31
2023-04-26T12:20:00.201Z,36.28
2023-04-26T12:21:00.212Z,36.30
2023-04-26T12:22:00.656Z,36.32
2023-04-26T12:23:00.134Z,36.29
2023-04-26T12:24:00.132Z,36.26
2023-04-26T12:25:00.121Z,36.27
2023-04-26T12:26:00.142Z,36.25
2023-04-26T12:27:02.159Z,36.25
2023-04-26T12:28:00.095Z,36.26
2023-04-26T12:29:00.070Z,36.20
2023-04-26T12:30:00.043Z,36.20
2023-04-26T12:31:00.025Z,36.19
2023-04-26T12:32:00.055Z,36.17
2023-04-26T12:33:09.238Z,36.17
2023-04-26T12:34:00.963Z,36.16
2023-04-26T12:35:00.653Z,36.17
2023-04-26T12:35:59.897Z,36.13
2023-04-26T12:36:59.863Z,36.17
2023-04-26T12:37:59.823Z,36.13
2023-04-26T12:38:59.795Z,36.17
2023-04-26T12:39:59.750Z,36.13
2023-04-26T12:40:59.724Z,36.13
2023-04-26T12:41:59.770Z,36.12
2023-04-26T12:42:59.654Z,36.16
2023-04-26T12:43:59.661Z,36.14
2023-04-26T12:44:59.681Z,36.14
2023-04-26T12:45:59.873Z,36.16
2023-04-26T12:46:59.742Z,36.17
2023-04-26T12:47:59.782Z,36.13
2023-04-26T12:48:59.765Z,36.12
2023-04-26T12:49:59.798Z,36.11
2023-04-26T12:50:59.841Z,36.10
2023-04-26T12:51:59.892Z,36.10
2023-04-26T12:52:59.895Z,36.07